createdAt,value
2017-10-01T00:01:49.468Z,24.2
2017-10-01T00:06:55.202Z,24.2
2017-10-01T00:12:00.270Z,24.2
2017-10-01T00:17:05.669Z,24.2
2017-10-01T00:22:10.733Z,24.2
2017-10-01T00:27:15.453Z,24.2
2017-10-01T00:32:20.516Z,24.1
2017-10-01T00:37:26.255Z,24.1
2017-10-01T00:42:31.654Z,24.1
2017-10-01T00:47:37.051Z,24.1
2017-10-01T00:52:42.114Z,24.1
2017-10-01T00:57:47.175Z,24.1
2017-10-01T01:02:52.235Z,24.1
2017-10-01T01:07:57.630Z,24.1
2017-10-01T01:13:03.360Z,24.1
2017-10-01T01:18:08.756Z,24.1
2017-10-01T01:23:14.154Z,24.1
2017-10-01T01:28:19.550Z,24.1
2017-10-01T01:33:24.616Z,24.1
2017-10-01T01:38:29.343Z,24.1
2017-10-01T01:43:34.427Z,24.1
2017-10-01T01:48:38.810Z,24.1
2017-10-01T01:53:44.213Z,24.1
2017-10-01T01:58:48.946Z,24
2017-10-01T02:03:54.347Z,24
2017-10-01T02:09:00.090Z,24
2017-10-01T02:14:05.816Z,24
2017-10-01T02:19:10.543Z,24
2017-10-01T02:24:15.608Z,24
2017-10-01T02:29:20.999Z,24
2017-10-01T02:34:26.730Z,24
2017-10-01T02:39:31.463Z,24
2017-10-01T02:44:36.187Z,24
2017-10-01T02:49:41.590Z,24
2017-10-01T02:54:46.988Z,24
2017-10-01T02:59:52.732Z,24
2017-10-01T03:04:58.465Z,24
2017-10-01T03:10:04.553Z,24
2017-10-01T03:15:08.932Z,24
2017-10-01T03:20:13.990Z,24
2017-10-01T03:25:18.382Z,24
2017-10-01T03:30:24.123Z,24
2017-10-01T03:35:29.520Z,24
2017-10-01T03:40:35.250Z,24
2017-10-01T03:45:40.990Z,24
2017-10-01T03:50:45.717Z,24
2017-10-01T03:55:50.439Z,24
2017-10-01T04:00:56.176Z,23.9
2017-10-01T04:06:01.288Z,23.9
2017-10-01T04:11:07.020Z,23.9
2017-10-01T04:16:12.763Z,23.9
2017-10-01T04:21:18.174Z,23.9
2017-10-01T04:26:23.573Z,23.9
2017-10-01T04:31:28.298Z,23.9
2017-10-01T04:36:33.698Z,23.9
2017-10-01T04:41:39.090Z,23.9
2017-10-01T04:46:43.815Z,23.9
2017-10-01T04:51:49.546Z,23.9
2017-10-01T04:56:54.282Z,23.9
2017-10-01T05:01:59.343Z,23.9
2017-10-01T05:07:04.406Z,23.9
2017-10-01T05:12:09.134Z,23.9
2017-10-01T05:17:14.531Z,23.9
2017-10-01T05:22:19.589Z,23.9
2017-10-01T05:27:24.369Z,23.9
2017-10-01T05:32:29.772Z,23.9
2017-10-01T05:37:34.833Z,23.9
2017-10-01T05:42:39.898Z,23.9
2017-10-01T05:47:45.293Z,23.9
2017-10-01T05:52:50.688Z,23.9
2017-10-01T05:57:56.422Z,23.9
2017-10-01T06:03:01.152Z,23.9
2017-10-01T06:08:06.363Z,23.9
2017-10-01T06:13:11.436Z,23.9
2017-10-01T06:18:16.180Z,23.9
2017-10-01T06:23:20.908Z,23.9
2017-10-01T06:28:26.309Z,23.9
2017-10-01T06:33:31.373Z,24
2017-10-01T06:38:36.774Z,24.1
2017-10-01T06:43:41.839Z,24.1
2017-10-01T06:48:46.909Z,24.2
2017-10-01T06:53:51.978Z,24.3
2017-10-01T06:58:57.050Z,24.4
2017-10-01T07:04:02.448Z,24.5
2017-10-01T07:09:08.188Z,24.7
2017-10-01T07:14:13.922Z,24.8
2017-10-01T07:19:19.662Z,24.9
2017-10-01T07:24:24.740Z,25
2017-10-01T07:29:30.148Z,25.1
2017-10-01T07:34:35.621Z,25.1
2017-10-01T07:39:41.111Z,25.1
2017-10-01T07:44:45.949Z,25.1
2017-10-01T07:49:51.719Z,25.3
2017-10-01T07:54:57.269Z,25.5
2017-10-01T08:00:02.200Z,25.7
2017-10-01T08:05:06.672Z,25.8
2017-10-01T08:10:12.179Z,26
2017-10-01T08:15:17.589Z,26.1
2017-10-01T08:20:23.345Z,26.2
2017-10-01T08:25:28.471Z,26.3
2017-10-01T08:30:33.547Z,26.3
2017-10-01T08:35:38.960Z,26.3
2017-10-01T08:40:44.379Z,26.3
2017-10-01T08:45:49.793Z,26.3
2017-10-01T08:50:54.537Z,26.3
2017-10-01T08:56:00.355Z,26.3
2017-10-01T09:01:05.115Z,26.2
2017-10-01T09:06:09.954Z,26.2
2017-10-01T09:11:15.034Z,26.2
2017-10-01T09:16:20.798Z,26.2
2017-10-01T09:21:26.262Z,26.3
2017-10-01T09:26:31.783Z,26.4
2017-10-01T09:31:36.529Z,26.5
2017-10-01T09:36:42.335Z,26.6
2017-10-01T09:41:47.433Z,26.6
2017-10-01T09:46:52.914Z,26.6
2017-10-01T09:51:57.662Z,26.5
2017-10-01T09:57:03.079Z,26.5
2017-10-01T10:02:08.894Z,26.5
2017-10-01T10:07:14.514Z,26.5
2017-10-01T10:12:19.925Z,26.4
2017-10-01T10:17:25.008Z,26.3
2017-10-01T10:22:30.781Z,26.2
2017-10-01T10:27:35.220Z,26.1
2017-10-01T10:32:40.639Z,26.1
2017-10-01T10:37:45.730Z,26
2017-10-01T10:42:51.147Z,26
2017-10-01T10:47:56.226Z,26
2017-10-01T10:53:01.643Z,26
2017-10-01T10:58:07.055Z,26
2017-10-01T11:03:12.809Z,26
2017-10-01T11:08:18.551Z,26
2017-10-01T11:13:23.635Z,26
2017-10-01T11:18:28.038Z,26
2017-10-01T11:23:32.810Z,26
2017-10-01T11:28:37.909Z,26
2017-10-01T11:33:43.326Z,26
2017-10-01T11:38:48.328Z,26
2017-10-01T11:43:53.767Z,26
2017-10-01T11:48:58.853Z,26
2017-10-01T11:54:04.309Z,26
2017-10-01T11:59:09.416Z,26
2017-10-01T12:04:14.502Z,26
2017-10-01T12:09:20.270Z,26
2017-10-01T12:14:25.376Z,26
2017-10-01T12:19:30.461Z,26
2017-10-01T12:24:35.885Z,26
2017-10-01T12:29:41.002Z,26
2017-10-01T12:34:46.441Z,26
2017-10-01T12:39:51.192Z,26
2017-10-01T12:44:56.283Z,26
2017-10-01T12:50:02.041Z,26
2017-10-01T12:55:07.116Z,26
2017-10-01T13:00:12.533Z,25.9
2017-10-01T13:05:17.611Z,25.9
2017-10-01T13:10:23.022Z,25.9
2017-10-01T13:15:28.439Z,25.9
2017-10-01T13:20:33.512Z,25.9
2017-10-01T13:25:38.918Z,25.8
2017-10-01T13:30:43.658Z,25.8
2017-10-01T13:35:48.733Z,25.8
2017-10-01T13:40:54.148Z,25.8
2017-10-01T13:45:59.562Z,25.8
2017-10-01T13:51:05.307Z,25.7
2017-10-01T13:56:11.055Z,25.7
2017-10-01T14:01:16.463Z,25.7
2017-10-01T14:06:22.208Z,25.7
2017-10-01T14:11:27.954Z,25.7
2017-10-01T14:16:33.029Z,25.7
2017-10-01T14:21:38.107Z,25.7
2017-10-01T14:26:43.510Z,25.6
2017-10-01T14:31:49.591Z,25.6
2017-10-01T14:36:54.999Z,25.6
2017-10-01T14:42:00.750Z,25.6
2017-10-01T14:47:05.487Z,25.6
2017-10-01T14:52:10.906Z,25.5
2017-10-01T14:57:16.327Z,25.5
2017-10-01T15:02:22.411Z,25.5
2017-10-01T15:07:27.812Z,25.5
2017-10-01T15:12:33.228Z,25.4
2017-10-01T15:17:38.628Z,25.4
2017-10-01T15:22:43.365Z,25.4
2017-10-01T15:27:48.106Z,25.4
2017-10-01T15:32:53.191Z,25.4
2017-10-01T15:37:58.286Z,25.3
2017-10-01T15:43:03.365Z,25.3
2017-10-01T15:48:08.438Z,25.3
2017-10-01T15:53:12.840Z,25.3
2017-10-01T15:58:17.946Z,25.3
2017-10-01T16:03:23.015Z,25.3
2017-10-01T16:08:28.427Z,25.3
2017-10-01T16:13:33.493Z,25.2
2017-10-01T16:18:39.236Z,25.2
2017-10-01T16:23:44.642Z,25.2
2017-10-01T16:28:49.713Z,25.2
2017-10-01T16:33:55.118Z,25.1
2017-10-01T16:39:00.573Z,25.1
2017-10-01T16:44:05.642Z,25.1
2017-10-01T16:49:10.716Z,25.1
2017-10-01T16:54:15.449Z,25.1
2017-10-01T16:59:20.513Z,25.1
2017-10-01T17:04:25.249Z,25
2017-10-01T17:09:30.651Z,25
2017-10-01T17:14:35.383Z,25
2017-10-01T17:19:40.112Z,25
2017-10-01T17:24:45.183Z,25
2017-10-01T17:29:50.591Z,25
2017-10-01T17:34:54.649Z,24.9
2017-10-01T17:40:00.059Z,24.9
2017-10-01T17:45:05.130Z,24.9
2017-10-01T17:50:10.217Z,24.9
2017-10-01T17:55:15.962Z,24.9
2017-10-01T18:00:21.697Z,24.9
2017-10-01T18:05:26.427Z,24.9
2017-10-01T18:10:31.501Z,24.9
2017-10-01T18:15:36.239Z,24.8
2017-10-01T18:20:41.653Z,24.8
2017-10-01T18:25:46.388Z,24.8
2017-10-01T18:30:51.462Z,24.8
2017-10-01T18:35:56.196Z,24.8
2017-10-01T18:41:02.272Z,24.8
2017-10-01T18:46:07.015Z,24.8
2017-10-01T18:51:12.176Z,24.8
2017-10-01T18:56:17.590Z,24.8
2017-10-01T19:01:23.000Z,24.7
2017-10-01T19:06:28.741Z,24.7
2017-10-01T19:11:33.478Z,24.7
2017-10-01T19:16:37.546Z,24.7
2017-10-01T19:21:42.618Z,24.7
2017-10-01T19:26:47.355Z,24.7
2017-10-01T19:31:52.760Z,24.7
2017-10-01T19:36:57.834Z,24.7
2017-10-01T19:42:03.247Z,24.7
2017-10-01T19:47:08.312Z,24.7
2017-10-01T19:52:14.066Z,24.6
2017-10-01T19:57:19.475Z,24.7
2017-10-01T20:02:25.237Z,24.6
2017-10-01T20:07:29.970Z,24.6
2017-10-01T20:12:34.704Z,24.6
2017-10-01T20:17:39.115Z,24.6
2017-10-01T20:22:44.520Z,24.6
2017-10-01T20:27:49.307Z,24.6
2017-10-01T20:32:53.711Z,24.6
2017-10-01T20:37:58.484Z,24.6
2017-10-01T20:43:02.894Z,24.5
2017-10-01T20:48:08.974Z,24.5
2017-10-01T20:53:14.712Z,24.5
2017-10-01T20:58:20.814Z,24.5
2017-10-01T21:03:26.223Z,24.5
2017-10-01T21:08:32.303Z,24.5
2017-10-01T21:13:38.035Z,24.5
2017-10-01T21:18:42.763Z,24.5
2017-10-01T21:23:47.157Z,24.5
2017-10-01T21:28:52.560Z,24.5
2017-10-01T21:33:57.620Z,24.5
2017-10-01T21:39:03.029Z,24.5
2017-10-01T21:44:08.096Z,24.5
2017-10-01T21:49:13.163Z,24.5
2017-10-01T21:54:18.243Z,24.5
2017-10-01T21:59:23.305Z,24.5
2017-10-01T22:04:28.033Z,24.5
2017-10-01T22:09:33.435Z,24.5
2017-10-01T22:14:38.493Z,24.5
2017-10-01T22:19:43.581Z,24.4
2017-10-01T22:24:48.986Z,24.4
2017-10-01T22:29:54.385Z,24.4
2017-10-01T22:34:58.787Z,24.4
2017-10-01T22:40:03.525Z,24.4
2017-10-01T22:45:07.922Z,24.4
2017-10-01T22:50:13.331Z,24.4
2017-10-01T22:55:18.418Z,24.4
2017-10-01T23:00:23.815Z,24.4
2017-10-01T23:05:29.218Z,24.4
2017-10-01T23:10:33.943Z,24.4
2017-10-01T23:15:39.003Z,24.4
2017-10-01T23:20:44.076Z,24.4
2017-10-01T23:25:49.344Z,24.3
2017-10-01T23:30:54.742Z,24.3
2017-10-01T23:36:00.140Z,24.3
2017-10-01T23:41:05.200Z,24.3
2017-10-01T23:46:10.598Z,24.3
2017-10-01T23:51:15.326Z,24.3
2017-10-01T23:56:20.721Z,24.3
